Terminal Aerodrome Forecast
Issued by NWS

Home | Current Version | Previous Version | Text Only | Print | Product List | Glossary On
Versions: 1 2 3 4 5 6 7 8 9 10 11 12 13 14 15 16 17 18 19 20
000
FTUS46 KOTX 281122
TAFPUW
TAF
KPUW 281122Z 2812/2912 24011KT P6SM SCT050 OVC200
     FM282200 23010G15KT P6SM -SHRA BKN040 OVC120
     FM290200 21006KT P6SM SCT050 BKN120
     FM291000 14007KT P6SM -RA BKN040 OVC070=

USA.gov is the U.S. government's official web portal to all federal, state and local government web resources and services.